Time;durP1;ratioP1;P1;durP2;ratioP2;P2;SDS_P1;SDS_P2;PMS_P1;PMS_P2;Temp;Humidity;BMP_temperature;BMP_pressure;BME280_temperature;BME280_humidity;BME280_pressure;Samples;Min_cycle;Max_cycle;Signal;HPM_P1;HPM_P2
2022/12/29 00:01:23;;;;;;;11.60;7.28;;;;;;;9.49;100.00;99975.69;5052748;28;20523;-48
2022/12/29 00:03:48;;;;;;;14.23;9.43;;;;;;;9.50;100.00;99970.59;5051820;28;20453;-49
2022/12/29 00:06:13;;;;;;;11.77;6.50;;;;;;;9.50;100.00;99975.75;5052778;28;20025;-49
2022/12/29 00:08:39;;;;;;;10.38;6.15;;;;;;;9.50;100.00;99968.03;5052295;28;20067;-49
2022/12/29 00:11:15;;;;;;;8.40;5.50;;;;;;;9.47;100.00;99965.38;5052182;28;20371;-49
2022/12/29 00:16:26;;;;;;;8.65;4.00;;;;;;;9.42;100.00;99964.41;5052376;28;20175;-49
2022/12/29 00:18:51;;;;;;;6.25;4.13;;;;;;;9.38;100.00;99948.06;5052230;28;20492;-48
2022/12/29 00:35:10;;;;;;;5.82;2.25;;;;;;;9.10;100.00;99948.34;5056884;28;20083;-48
2022/12/29 00:45:54;;;;;;;6.72;2.42;;;;;;;8.84;100.00;99935.78;5055863;28;20056;-50
2022/12/29 00:49:29;;;;;;;28.77;13.07;;;;;;;8.81;100.00;99915.19;5056194;28;20387;-49
2022/12/29 00:51:05;;;;;;;10.63;5.20;;;;;;;8.76;100.00;99917.66;5055368;28;20494;-49
2022/12/29 00:53:30;;;;;;;6.40;3.35;;;;;;;8.73;100.00;99915.03;5055894;28;20107;-49
2022/12/29 00:55:56;;;;;;;7.07;4.03;;;;;;;8.73;100.00;99912.44;5056112;28;20066;-48
2022/12/29 00:58:21;;;;;;;7.45;3.22;;;;;;;8.70;100.00;99907.22;5055529;28;20054;-48
2022/12/29 01:00:46;;;;;;;10.40;5.72;;;;;;;8.69;100.00;99916.66;5055296;28;20476;-48
2022/12/29 01:03:11;;;;;;;7.55;4.57;;;;;;;8.70;100.00;99917.50;5056147;28;20029;-48
2022/12/29 01:05:37;;;;;;;10.68;6.00;;;;;;;8.69;100.00;99906.38;5055058;28;20143;-48
2022/12/29 01:08:02;;;;;;;14.10;7.28;;;;;;;8.69;100.00;99883.25;5055970;28;20396;-49
2022/12/29 01:10:28;;;;;;;16.42;8.90;;;;;;;8.68;100.00;99890.94;5055710;28;20087;-49
2022/12/29 01:12:53;;;;;;;15.30;8.57;;;;;;;8.67;100.00;99894.31;5055074;28;20032;-47
2022/12/29 01:15:18;;;;;;;12.20;7.65;;;;;;;8.70;100.00;99882.41;5055603;28;20025;-49
2022/12/29 01:17:44;;;;;;;10.75;7.18;;;;;;;8.75;100.00;99879.94;5055541;28;20071;-49
2022/12/29 01:20:10;;;;;;;16.88;8.57;;;;;;;8.82;100.00;99886.94;5054929;28;20059;-47
2022/12/29 01:22:36;;;;;;;39.35;17.80;;;;;;;8.87;100.00;99871.59;5055159;28;20413;-47
2022/12/29 01:25:01;;;;;;;18.95;9.70;;;;;;;8.94;100.00;99880.34;5055666;28;20027;-48
2022/12/29 01:27:27;;;;;;;12.85;6.70;;;;;;;9.02;100.00;99871.06;5054755;28;20029;-46
2022/12/29 01:29:52;;;;;;;30.77;13.88;;;;;;;9.06;100.00;99880.56;5055189;28;20460;-45
2022/12/29 01:32:17;;;;;;;24.08;11.43;;;;;;;9.11;100.00;99875.53;5055189;28;20017;-48
2022/12/29 01:34:42;;;;;;;14.05;7.50;;;;;;;9.12;100.00;99867.84;5054354;28;20028;-49
2022/12/29 01:37:08;;;;;;;28.30;11.60;;;;;;;9.11;100.00;99871.25;5055358;28;20472;-50
2022/12/29 01:39:33;;;;;;;37.33;15.77;;;;;;;9.17;100.00;99863.66;5054740;28;20029;-48
2022/12/29 01:41:58;;;;;;;11.40;4.47;;;;;;;9.21;100.00;99857.75;5054664;28;20472;-45
2022/12/29 01:44:53;;;;;;;51.22;21.95;;;;;;;9.26;100.00;99862.97;5055020;28;20021;-48
2022/12/29 01:47:29;;;;;;;12.55;5.35;;;;;;;9.33;100.00;99871.66;5054646;28;20076;-48
2022/12/29 01:49:57;;;;;;;16.30;6.65;;;;;;;9.35;100.00;99852.84;5055113;28;20460;-46
2022/12/29 01:52:27;;;;;;;14.45;4.40;;;;;;;9.39;100.00;99872.66;5055297;28;20103;-48
2022/12/29 01:54:55;;;;;;;14.30;5.85;;;;;;;9.44;100.00;99857.31;5054244;28;20025;-49
2022/12/29 01:57:29;;;;;;;14.10;4.10;;;;;;;9.53;100.00;99867.75;5054883;28;20463;-49
2022/12/29 02:00:01;;;;;;;33.55;13.90;;;;;;;9.56;100.00;99862.66;5054939;28;20037;-49
2022/12/29 02:02:27;;;;;;;68.75;29.23;;;;;;;9.59;100.00;99869.56;5054030;28;20577;-47
2022/12/29 02:04:55;;;;;;;11.55;4.68;;;;;;;9.65;100.00;99872.25;5054805;28;20025;-45
2022/12/29 02:07:23;;;;;;;7.25;3.33;;;;;;;9.67;100.00;99878.31;5054894;28;20033;-49
2022/12/29 02:09:49;;;;;;;19.88;8.00;;;;;;;9.71;100.00;99861.22;5053931;28;20029;-49
2022/12/29 02:12:17;;;;;;;16.75;5.93;;;;;;;9.74;100.00;99866.41;5054822;28;20055;-49
2022/12/29 02:14:42;;;;;;;18.73;6.15;;;;;;;9.81;100.00;99868.25;5054301;28;20025;-47
2022/12/29 02:17:07;;;;;;;30.77;12.95;;;;;;;9.81;100.00;99872.53;5054045;28;20036;-48
2022/12/29 02:20:11;;;;;;;9.73;3.53;;;;;;;9.82;100.00;99859.66;5054348;28;20115;-48
2022/12/29 02:23:20;;;;;;;15.75;5.47;;;;;;;9.87;100.00;99857.19;5053580;28;20276;-47
2022/12/29 02:26:22;;;;;;;16.27;4.07;;;;;;;9.89;100.00;99876.97;5054213;28;20403;-49
2022/12/29 02:29:15;;;;;;;8.27;3.03;;;;;;;9.96;100.00;99877.06;5053976;28;20029;-50
2022/12/29 02:31:45;;;;;;;15.95;5.30;;;;;;;9.95;100.00;99865.88;5053705;28;20067;-49
2022/12/29 02:34:32;;;;;;;17.80;6.68;;;;;;;9.97;100.00;99863.38;5054401;28;20036;-48
2022/12/29 02:37:05;;;;;;;17.95;6.10;;;;;;;9.97;100.00;99859.06;5053709;28;20074;-48
2022/12/29 02:39:45;;;;;;;8.48;2.88;;;;;;;9.99;100.00;99857.41;5053776;28;20029;-47
2022/12/29 02:42:21;;;;;;;10.60;3.42;;;;;;;9.99;100.00;99877.09;5054226;28;20029;-48
2022/12/29 02:45:13;;;;;;;7.78;2.33;;;;;;;9.96;100.00;99861.63;5052266;28;20028;-47
2022/12/29 02:48:07;;;;;;;18.10;5.53;;;;;;;9.98;100.00;99847.06;5053945;28;20100;-47
2022/12/29 02:50:37;;;;;;;15.77;5.05;;;;;;;9.93;100.00;99859.88;5052946;28;20376;-46
2022/12/29 02:53:07;;;;;;;28.30;10.27;;;;;;;9.91;100.00;99863.25;5053841;28;20090;-48
2022/12/29 02:55:32;;;;;;;31.65;11.00;;;;;;;9.88;100.00;99854.63;5053824;28;20024;-49
2022/12/29 02:58:18;;;;;;;14.65;4.55;;;;;;;9.86;100.00;99850.31;5053260;28;20043;-49
2022/12/29 03:01:11;;;;;;;16.17;4.57;;;;;;;9.84;100.00;99842.56;5053340;28;20037;-48
2022/12/29 03:04:24;;;;;;;38.55;14.05;;;;;;;9.80;100.00;99838.22;5053370;28;20074;-47
2022/12/29 03:07:26;;;;;;;7.68;2.70;;;;;;;9.75;100.00;99833.81;5047856;28;20119;-50
2022/12/29 03:10:01;;;;;;;14.88;3.92;;;;;;;9.66;100.00;99849.97;5049030;28;20040;-49
2022/12/29 03:18:32;;;;;;;14.60;4.80;;;;;;;9.61;100.00;99839.59;5053367;28;20549;-47
2022/12/29 03:21:05;;;;;;;15.63;4.47;;;;;;;9.62;100.00;99830.16;5052796;28;20515;-46
2022/12/29 03:23:33;;;;;;;14.63;4.88;;;;;;;9.64;100.00;99838.78;5053296;28;20107;-47
2022/12/29 03:26:04;;;;;;;10.35;3.13;;;;;;;9.66;100.00;99832.81;5052637;28;20036;-48
2022/12/29 03:28:38;;;;;;;36.10;16.60;;;;;;;9.67;100.00;99843.97;5052887;28;20033;-45
2022/12/29 03:31:06;;;;;;;12.20;4.93;;;;;;;9.69;100.00;99832.00;5053275;28;20029;-49
2022/12/29 03:33:32;;;;;;;13.27;5.55;;;;;;;9.67;100.00;99818.25;5052147;28;20021;-46
2022/12/29 03:36:02;;;;;;;11.40;4.43;;;;;;;9.64;100.00;99813.06;5053321;28;20035;-49
2022/12/29 03:38:49;;;;;;;15.30;5.88;;;;;;;9.64;100.00;99828.50;5052740;28;20044;-46
2022/12/29 03:41:20;;;;;;;19.42;7.32;;;;;;;9.62;100.00;99819.88;5052398;28;20029;-48
2022/12/29 03:43:45;;;;;;;18.85;5.10;;;;;;;9.54;100.00;99830.91;5052953;28;20036;-49
2022/12/29 03:46:11;;;;;;;19.50;7.55;;;;;;;9.50;100.00;99847.16;5052985;28;20071;-47
2022/12/29 03:48:36;;;;;;;18.73;5.57;;;;;;;9.43;100.00;99835.00;5052254;28;20037;-47
2022/12/29 03:51:01;;;;;;;33.63;12.50;;;;;;;9.35;100.00;99836.56;5052913;28;20017;-48
2022/12/29 03:53:26;;;;;;;15.00;4.93;;;;;;;9.30;100.00;99826.19;5052654;28;20563;-48
2022/12/29 03:55:52;;;;;;;12.85;3.53;;;;;;;9.27;100.00;99828.72;5051849;28;20082;-46
2022/12/29 03:58:17;;;;;;;23.50;8.18;;;;;;;9.29;100.00;99842.44;5052786;28;20025;-49
2022/12/29 04:00:42;;;;;;;36.45;15.07;;;;;;;9.32;100.00;99828.78;5052032;28;20056;-50
2022/12/29 04:03:08;;;;;;;15.35;4.38;;;;;;;9.30;100.00;99836.47;5052190;28;20091;-46
2022/12/29 04:05:33;;;;;;;15.40;3.45;;;;;;;9.25;100.00;99850.09;5052616;28;20111;-49
2022/12/29 04:07:58;;;;;;;32.30;10.40;;;;;;;9.20;100.00;99858.56;5051991;28;20024;-47
2022/12/29 04:10:24;;;;;;;23.85;7.30;;;;;;;9.16;100.00;99854.22;5052657;28;20036;-48
2022/12/29 04:12:49;;;;;;;34.92;9.85;;;;;;;9.13;100.00;99846.44;5052358;28;20033;-46
2022/12/29 04:15:14;;;;;;;29.05;6.68;;;;;;;9.06;100.00;99824.91;5052134;28;20134;-46
2022/12/29 04:17:40;;;;;;;218.80;50.80;;;;;;;8.96;100.00;99842.66;5052579;28;20025;-49
2022/12/29 04:22:58;;;;;;;78.95;19.55;;;;;;;8.76;100.00;99861.13;5051567;28;20044;-49
2022/12/29 04:25:23;;;;;;;24.55;6.30;;;;;;;8.70;100.00;99866.13;5052883;28;20040;-48
2022/12/29 04:27:48;;;;;;;68.03;16.90;;;;;;;8.62;100.00;99867.66;5052243;28;20021;-49
2022/12/29 04:30:14;;;;;;;39.28;9.38;;;;;;;8.57;100.00;99855.59;5051907;28;20025;-49
2022/12/29 04:32:39;;;;;;;17.83;4.18;;;;;;;8.51;100.00;99850.31;5052231;28;20029;-49
2022/12/29 04:35:05;;;;;;;20.23;3.50;;;;;;;8.52;100.00;99858.88;5052366;28;20017;-49
2022/12/29 04:37:30;;;;;;;14.65;3.13;;;;;;;8.46;100.00;99867.34;5051663;28;20032;-48
2022/12/29 04:39:55;;;;;;;28.23;5.55;;;;;;;8.47;100.00;99858.81;5052610;28;20033;-49
2022/12/29 04:42:21;;;;;;;17.55;5.13;;;;;;;8.49;100.00;99872.53;5052149;28;20030;-49
2022/12/29 04:44:46;;;;;;;11.35;2.80;;;;;;;8.47;100.00;99878.47;5051906;28;20029;-48
2022/12/29 04:47:11;;;;;;;25.25;5.00;;;;;;;8.44;100.00;99868.09;5052559;28;20472;-48
2022/12/29 04:49:37;;;;;;;17.80;3.13;;;;;;;8.38;100.00;99872.25;5051976;28;20040;-48
2022/12/29 04:52:02;;;;;;;13.32;3.47;;;;;;;8.40;100.00;99877.44;5051810;28;20469;-46
2022/12/29 04:54:27;;;;;;;26.90;3.25;;;;;;;8.47;100.00;99879.34;5052228;28;20029;-46
2022/12/29 04:56:52;;;;;;;14.25;2.35;;;;;;;8.44;100.00;99897.19;5051981;28;20032;-48
2022/12/29 04:59:18;;;;;;;13.13;2.55;;;;;;;8.48;100.00;99893.94;5051642;28;20102;-48
2022/12/29 05:01:43;;;;;;;14.02;2.55;;;;;;;8.45;100.00;99910.94;5051873;28;20025;-49
2022/12/29 05:04:08;;;;;;;14.70;3.05;;;;;;;8.48;100.00;99901.63;5052028;28;20108;-48
2022/12/29 05:06:33;;;;;;;18.30;3.10;;;;;;;8.46;100.00;99905.84;5051395;28;20025;-49
2022/12/29 05:08:59;;;;;;;18.02;3.00;;;;;;;8.44;100.00;99907.47;5055865;28;20033;-49
2022/12/29 05:11:24;;;;;;;16.67;3.03;;;;;;;8.38;100.00;99913.34;5055009;28;20040;-49
2022/12/29 05:13:49;;;;;;;15.35;3.70;;;;;;;8.37;100.00;99913.31;5055657;28;20104;-49
2022/12/29 05:16:15;;;;;;;18.27;2.95;;;;;;;8.42;100.00;99919.44;5055659;28;20028;-49
2022/12/29 05:18:40;;;;;;;14.50;2.60;;;;;;;8.40;100.00;99921.06;5054745;28;20028;-48
2022/12/29 05:21:05;;;;;;;16.70;2.75;;;;;;;8.43;100.00;99927.97;5055553;28;20468;-48
2022/12/29 05:23:30;;;;;;;15.95;2.53;;;;;;;8.39;100.00;99927.03;5055264;28;20025;-48
2022/12/29 05:25:56;;;;;;;22.75;2.95;;;;;;;8.44;100.00;99929.72;5055001;28;20037;-46
2022/12/29 05:28:21;;;;;;;15.60;2.60;;;;;;;8.46;100.00;99939.22;5055604;28;20021;-46
2022/12/29 05:30:50;;;;;;;19.55;3.40;;;;;;;8.56;100.00;99930.06;5055283;28;20830;-47
2022/12/29 05:33:17;;;;;;;19.95;3.22;;;;;;;8.63;100.00;99938.75;5054790;28;20027;-49
2022/12/29 05:35:42;;;;;;;20.63;3.28;;;;;;;8.68;100.00;99950.00;5055182;28;20049;-48
2022/12/29 05:38:08;;;;;;;18.20;3.28;;;;;;;8.69;100.00;99936.34;5055291;28;20046;-47
2022/12/29 05:40:33;;;;;;;17.50;2.78;;;;;;;8.71;100.00;99948.38;5054535;28;20526;-44
2022/12/29 05:42:58;;;;;;;18.92;3.30;;;;;;;8.69;100.00;99952.59;5055490;28;20021;-48
2022/12/29 05:45:23;;;;;;;13.32;2.50;;;;;;;8.71;100.00;99961.22;5055034;28;20376;-45
2022/12/29 05:47:49;;;;;;;18.00;2.83;;;;;;;8.73;100.00;99956.97;5054314;28;20025;-48
2022/12/29 05:50:14;;;;;;;16.88;3.17;;;;;;;8.73;100.00;99953.56;5055057;28;20017;-47
2022/12/29 05:52:39;;;;;;;17.02;2.55;;;;;;;8.80;100.00;99955.41;5054727;28;20051;-46
2022/12/29 05:55:05;;;;;;;17.88;3.10;;;;;;;8.84;99.91;99966.63;5054446;28;20025;-48
2022/12/29 05:57:30;;;;;;;13.52;2.40;;;;;;;8.85;99.84;99958.09;5054840;28;20025;-47
2022/12/29 05:59:56;;;;;;;15.70;2.72;;;;;;;8.84;99.70;99964.91;5054525;28;20097;-48
2022/12/29 06:02:21;;;;;;;16.13;2.67;;;;;;;8.84;99.34;99972.63;5054521;28;20381;-46
2022/12/29 06:04:46;;;;;;;14.15;2.13;;;;;;;8.88;98.68;99969.31;5054751;28;20388;-48
2022/12/29 06:07:11;;;;;;;11.55;2.38;;;;;;;8.94;97.88;99967.72;5054522;28;20055;-45
2022/12/29 06:09:37;;;;;;;17.85;3.15;;;;;;;8.96;97.02;99971.16;5054105;28;20082;-48
2022/12/29 06:12:02;;;;;;;10.15;2.10;;;;;;;8.98;96.50;99974.66;5054583;28;20025;-48
2022/12/29 06:14:28;;;;;;;17.30;2.90;;;;;;;8.99;95.79;99963.53;5054167;28;20064;-47
2022/12/29 06:16:53;;;;;;;17.17;2.83;;;;;;;8.99;96.58;99966.13;5054202;28;20044;-49
2022/12/29 06:19:18;;;;;;;14.23;2.63;;;;;;;8.99;96.41;99964.41;5054455;28;20033;-46
2022/12/29 06:21:44;;;;;;;22.65;3.13;;;;;;;8.98;95.88;99966.94;5053424;28;20060;-48
2022/12/29 06:24:10;;;;;;;14.27;2.70;;;;;;;8.97;96.11;99967.78;5054424;28;20047;-46
2022/12/29 06:26:36;;;;;;;14.02;2.92;;;;;;;8.96;95.66;99953.19;5054338;28;20108;-48
2022/12/29 06:29:02;;;;;;;15.23;2.53;;;;;;;9.00;94.73;99947.25;5053806;28;20095;-48
2022/12/29 06:31:28;;;;;;;14.63;2.45;;;;;;;9.00;94.81;99947.25;5054114;28;20025;-48
2022/12/29 06:33:53;;;;;;;13.88;2.22;;;;;;;9.00;94.68;99948.16;5054265;28;20021;-49
2022/12/29 06:36:18;;;;;;;15.90;2.78;;;;;;;8.95;95.03;99951.44;5053458;28;20025;-49
2022/12/29 06:38:44;;;;;;;20.77;2.80;;;;;;;8.94;94.62;99937.72;5054091;28;20096;-50
2022/12/29 06:41:09;;;;;;;11.88;2.53;;;;;;;8.94;94.47;99947.16;5054234;28;20380;-45
2022/12/29 06:43:37;;;;;;;12.55;2.42;;;;;;;8.90;94.93;99947.06;5053059;28;20029;-45
2022/12/29 06:46:04;;;;;;;10.63;2.50;;;;;;;8.96;94.09;99950.59;5054085;28;20025;-46
2022/12/29 06:48:29;;;;;;;12.48;2.28;;;;;;;8.91;94.72;99950.53;5053625;28;20025;-47
2022/12/29 06:50:54;;;;;;;15.30;2.83;;;;;;;8.90;94.67;99944.50;5053552;28;20100;-48
2022/12/29 06:53:19;;;;;;;16.15;3.25;;;;;;;8.92;94.39;99954.81;5054009;28;20384;-49
2022/12/29 06:55:45;;;;;;;12.85;2.53;;;;;;;8.93;94.22;99950.56;5053590;28;20017;-47
2022/12/29 06:58:10;;;;;;;17.52;2.85;;;;;;;8.92;94.58;99952.25;5053441;28;20070;-47
2022/12/29 07:00:35;;;;;;;16.98;2.65;;;;;;;8.89;94.91;99945.31;5053242;28;20400;-45
2022/12/29 07:03:01;;;;;;;19.85;3.47;;;;;;;8.93;94.45;99953.13;5053506;28;20037;-49
2022/12/29 07:05:27;;;;;;;17.60;2.42;;;;;;;8.92;94.71;99953.94;5053122;28;20068;-49
2022/12/29 07:07:53;;;;;;;17.30;2.65;;;;;;;8.98;94.06;99959.22;5053789;28;20029;-46
2022/12/29 07:10:18;;;;;;;22.48;3.45;;;;;;;9.01;94.00;99959.28;5053223;28;20048;-49
2022/12/29 07:12:44;;;;;;;15.00;3.10;;;;;;;9.06;93.56;99967.97;5052914;28;20556;-44
2022/12/29 07:15:09;;;;;;;22.73;3.08;;;;;;;9.06;93.39;99961.13;5053651;28;20039;-49
2022/12/29 07:17:35;;;;;;;14.43;2.70;;;;;;;9.06;92.80;99968.84;5052969;28;20033;-47
2022/12/29 07:20:00;;;;;;;20.30;3.50;;;;;;;9.07;92.30;99980.00;5052735;28;20380;-44
2022/12/29 07:22:25;;;;;;;18.83;3.13;;;;;;;9.05;92.03;99977.38;5053623;28;20021;-47
2022/12/29 07:24:51;;;;;;;16.60;3.08;;;;;;;9.01;92.52;100010.69;5052583;28;20025;-45
2022/12/29 07:27:16;;;;;;;26.63;3.65;;;;;;;9.11;90.37;99998.91;5053567;28;20112;-44
2022/12/29 07:29:41;;;;;;;20.70;3.63;;;;;;;9.14;89.56;99992.16;5052675;28;20460;-44
2022/12/29 07:32:06;;;;;;;19.83;2.70;;;;;;;9.15;89.38;99991.28;5052360;28;20028;-44
2022/12/29 07:34:32;;;;;;;22.35;3.53;;;;;;;9.11;89.75;100002.34;5052807;28;20021;-44
2022/12/29 07:36:57;;;;;;;21.02;3.63;;;;;;;9.07;89.14;100015.97;5053248;28;20108;-46
2022/12/29 07:39:22;;;;;;;31.30;4.80;;;;;;;8.98;89.25;100000.34;5052419;28;20024;-43
2022/12/29 07:41:48;;;;;;;24.38;3.35;;;;;;;8.95;89.05;100015.69;5052764;28;20365;-45
2022/12/29 07:44:13;;;;;;;26.50;4.20;;;;;;;8.90;89.29;100010.47;5053162;28;20075;-46
2022/12/29 07:46:38;;;;;;;16.35;3.60;;;;;;;8.92;87.73;100015.63;5052085;28;20375;-48
2022/12/29 07:49:03;;;;;;;28.00;3.85;;;;;;;8.98;87.14;99997.78;5052871;28;20036;-45
2022/12/29 07:51:29;;;;;;;20.00;3.50;;;;;;;9.00;87.41;100008.94;5052327;28;20480;-45
2022/12/29 07:53:54;;;;;;;20.58;4.65;;;;;;;9.02;87.75;100012.44;5052535;28;20083;-45
2022/12/29 07:56:19;;;;;;;26.58;4.10;;;;;;;9.01;88.26;100021.84;5052937;28;20021;-45
2022/12/29 07:58:45;;;;;;;24.27;4.10;;;;;;;9.02;87.61;100027.84;5052360;28;20488;-44
2022/12/29 08:01:10;;;;;;;40.85;5.07;;;;;;;9.03;87.30;100024.44;5051965;28;20061;-44
2022/12/29 08:03:36;;;;;;;30.48;5.97;;;;;;;9.05;87.81;100017.63;5052579;28;20024;-45
2022/12/29 08:06:01;;;;;;;29.10;5.82;;;;;;;9.04;88.12;100031.34;5052738;28;20025;-45
2022/12/29 08:08:26;;;;;;;19.88;4.72;;;;;;;8.98;88.73;100026.91;5052175;28;20021;-44
2022/12/29 08:10:52;;;;;;;24.05;6.18;;;;;;;8.98;88.61;100031.19;5052613;28;20083;-44
2022/12/29 08:13:17;;;;;;;32.75;7.93;;;;;;;8.96;89.10;100030.28;5052643;28;20112;-44
2022/12/29 08:15:42;;;;;;;25.85;6.05;;;;;;;8.96;89.71;100030.28;5051865;28;20021;-44
2022/12/29 08:18:08;;;;;;;28.73;5.40;;;;;;;9.03;87.96;100034.72;5052669;28;20383;-45
2022/12/29 08:20:33;;;;;;;61.03;24.15;;;;;;;9.09;87.46;100039.13;5051922;28;20035;-44
2022/12/29 08:22:58;;;;;;;30.92;7.30;;;;;;;9.13;87.66;100035.78;5052134;28;20090;-45
2022/12/29 08:25:24;;;;;;;27.98;6.85;;;;;;;9.17;86.73;100033.34;5052550;28;20021;-47
2022/12/29 08:27:49;;;;;;;33.03;6.15;;;;;;;9.18;85.42;100039.34;5052077;28;20037;-44
2022/12/29 08:30:14;;;;;;;20.58;5.03;;;;;;;9.21;84.47;100035.13;5052072;28;20028;-46
2022/12/29 08:32:40;;;;;;;27.85;4.20;;;;;;;9.23;84.53;100036.06;5052268;28;20029;-44
2022/12/29 08:35:06;;;;;;;34.22;10.57;;;;;;;9.25;84.30;100037.78;5052231;28;20024;-44
2022/12/29 08:37:32;;;;;;;38.38;12.20;;;;;;;9.26;84.15;100031.78;5051554;28;20052;-44
2022/12/29 08:39:59;;;;;;;52.85;20.17;;;;;;;9.26;83.63;100036.94;5052344;28;20408;-45
2022/12/29 08:42:30;;;;;;;26.77;4.45;;;;;;;9.26;83.72;100032.69;5052824;28;20092;-44
2022/12/29 08:44:56;;;;;;;23.55;7.18;;;;;;;9.31;83.00;100030.19;5056348;28;20037;-45
2022/12/29 08:47:21;;;;;;;28.80;5.53;;;;;;;9.30;83.71;100028.47;5056321;28;20056;-47
2022/12/29 08:49:46;;;;;;;28.13;8.05;;;;;;;9.32;83.59;100030.25;5055367;28;20036;-45
2022/12/29 08:52:11;;;;;;;83.05;35.88;;;;;;;9.35;83.39;100037.16;5056325;28;20017;-47
2022/12/29 08:54:37;;;;;;;33.50;8.95;;;;;;;9.38;82.67;100032.06;5055717;28;20526;-44
2022/12/29 08:57:02;;;;;;;75.20;23.17;;;;;;;9.42;82.52;100033.00;5055651;28;20021;-47
2022/12/29 08:59:27;;;;;;;68.53;23.48;;;;;;;9.43;82.35;100020.16;5055626;28;20412;-44
2022/12/29 09:01:53;;;;;;;30.92;9.73;;;;;;;9.44;82.58;100039.91;5055709;28;20025;-44
2022/12/29 09:04:18;;;;;;;36.90;10.27;;;;;;;9.44;83.24;100039.03;5055324;28;20464;-44
2022/12/29 09:06:44;;;;;;;27.67;7.28;;;;;;;9.44;83.38;100041.59;5055723;28;20376;-44
2022/12/29 09:09:10;;;;;;;29.23;6.68;;;;;;;9.44;82.78;100050.22;5055561;28;20555;-45
2022/12/29 09:11:36;;;;;;;33.33;7.05;;;;;;;9.47;82.63;100047.69;5054968;28;20032;-45
2022/12/29 09:14:01;;;;;;;27.02;5.85;;;;;;;9.49;82.62;100040.88;5055760;28;20099;-44
2022/12/29 09:16:26;;;;;;;27.60;4.70;;;;;;;9.49;82.92;100051.16;5055321;28;20027;-44
2022/12/29 09:18:52;;;;;;;23.17;4.45;;;;;;;9.47;83.21;100057.13;5054864;28;20112;-44
2022/12/29 09:21:17;;;;;;;28.35;6.40;;;;;;;9.39;84.78;100054.38;5055643;28;20430;-44
2022/12/29 09:23:43;;;;;;;28.25;6.75;;;;;;;9.35;84.94;100055.16;5055135;28;20092;-46
2022/12/29 09:26:08;;;;;;;30.33;8.32;;;;;;;9.33;86.31;100069.66;5055118;28;20028;-45
2022/12/29 09:28:34;;;;;;;32.45;8.20;;;;;;;9.26;86.90;100067.78;5055084;28;20149;-44
2022/12/29 09:31:00;;;;;;;27.05;7.38;;;;;;;9.06;89.87;100055.34;5055248;28;20036;-44
2022/12/29 09:33:26;;;;;;;27.65;5.90;;;;;;;8.93;91.00;100068.75;5054641;28;20400;-45
2022/12/29 09:35:54;;;;;;;23.85;5.53;;;;;;;8.80;92.73;100073.59;5055090;28;20452;-43
2022/12/29 09:38:20;;;;;;;34.13;9.98;;;;;;;8.72;93.34;100075.97;5054881;28;20025;-43
2022/12/29 09:40:50;;;;;;;21.70;4.60;;;;;;;8.73;92.78;100069.16;5054243;28;20431;-44
2022/12/29 09:43:40;;;;;;;28.13;6.50;;;;;;;8.80;92.08;100096.72;5055150;28;20070;-44
2022/12/29 09:46:26;;;;;;;28.77;9.25;;;;;;;8.80;92.92;100109.56;5054810;28;20112;-47
2022/12/29 09:49:19;;;;;;;27.95;6.60;;;;;;;8.83;92.52;100107.09;5055130;28;20017;-48
2022/12/29 09:51:50;;;;;;;27.73;7.82;;;;;;;8.81;92.78;100103.59;5051379;28;20075;-47
2022/12/29 09:54:29;;;;;;;19.85;4.63;;;;;;;8.73;94.91;100102.56;5054337;28;20032;-46
2022/12/29 09:56:55;;;;;;;21.65;4.00;;;;;;;8.66;96.14;100111.81;5055279;28;20013;-46
2022/12/29 09:59:26;;;;;;;16.15;3.78;;;;;;;8.63;96.54;100119.44;5054467;28;20047;-46
2022/12/29 10:02:06;;;;;;;18.80;3.90;;;;;;;8.59;96.29;100119.31;5054038;28;20082;-44
2022/12/29 10:04:31;;;;;;;28.17;4.00;;;;;;;8.54;96.71;100137.16;5054412;28;20043;-48
2022/12/29 10:07:19;;;;;;;30.85;4.72;;;;;;;8.46;99.06;100147.25;5054127;28;20447;-46
2022/12/29 10:10:27;;;;;;;21.83;4.03;;;;;;;8.44;99.74;100141.16;5054276;28;20029;-44
2022/12/29 10:13:01;;;;;;;22.63;4.00;;;;;;;8.40;99.76;100155.63;5054234;28;20029;-48
2022/12/29 10:15:39;;;;;;;24.52;3.78;;;;;;;8.35;100.00;100152.06;5054349;28;20025;-46
2022/12/29 10:18:33;;;;;;;26.52;3.80;;;;;;;8.31;100.00;100144.22;5054739;28;20021;-49
2022/12/29 10:20:59;;;;;;;25.23;3.70;;;;;;;8.23;100.00;100172.25;5053763;28;20037;-48
2022/12/29 10:23:40;;;;;;;25.58;4.60;;;;;;;8.20;100.00;100178.16;5054883;28;20040;-46
2022/12/29 10:26:13;;;;;;;24.90;4.03;;;;;;;8.14;100.00;100174.56;5054338;28;20079;-48
2022/12/29 10:28:45;;;;;;;18.75;3.42;;;;;;;8.06;100.00;100185.47;5053974;28;20107;-46
2022/12/29 10:31:24;;;;;;;26.60;4.57;;;;;;;8.02;100.00;100193.91;5054333;28;20021;-46
2022/12/29 10:34:05;;;;;;;32.83;5.68;;;;;;;7.98;100.00;100192.09;5053712;28;20025;-45
2022/12/29 10:36:38;;;;;;;25.42;5.03;;;;;;;7.95;100.00;100197.09;5053518;28;20490;-47
2022/12/29 10:39:32;;;;;;;32.38;5.45;;;;;;;7.93;100.00;100190.19;5054161;28;20025;-48
2022/12/29 10:42:13;;;;;;;28.23;5.20;;;;;;;7.90;100.00;100206.34;5053219;28;20507;-49
2022/12/29 10:44:39;;;;;;;31.23;5.93;;;;;;;7.87;100.00;100209.69;5053731;28;20079;-46
2022/12/29 10:47:12;;;;;;;24.05;7.35;;;;;;;7.89;100.00;100222.59;5053877;28;20029;-49
2022/12/29 10:49:41;;;;;;;35.28;9.60;;;;;;;7.87;100.00;100224.25;5053250;28;20021;-48
2022/12/29 10:52:08;;;;;;;43.03;11.27;;;;;;;7.88;100.00;100221.72;5053838;28;20095;-47
2022/12/29 10:54:43;;;;;;;27.05;6.47;;;;;;;7.89;100.00;100228.59;5053204;28;20530;-47
2022/12/29 10:57:16;;;;;;;49.90;14.20;;;;;;;7.92;100.00;100225.25;5053460;28;20041;-48
2022/12/29 10:59:41;;;;;;;79.65;23.50;;;;;;;7.97;100.00;100226.25;5053319;28;20136;-48
2022/12/29 11:02:06;;;;;;;164.25;53.90;;;;;;;8.06;100.00;100233.38;5053510;28;20439;-49
2022/12/29 11:05:02;;;;;;;147.43;45.50;;;;;;;8.12;100.00;100238.69;5052363;28;20028;-48
2022/12/29 11:07:29;;;;;;;58.75;15.13;;;;;;;8.14;100.00;100233.59;5053535;28;20274;-44
2022/12/29 11:09:55;;;;;;;48.35;12.50;;;;;;;8.11;100.00;100254.91;5052997;28;20039;-45
2022/12/29 11:12:26;;;;;;;47.13;16.55;;;;;;;8.08;100.00;100267.63;5053605;28;20025;-48
2022/12/29 11:15:07;;;;;;;31.13;10.98;;;;;;;8.05;100.00;100262.41;5052874;28;20545;-47
2022/12/29 11:17:47;;;;;;;35.85;15.82;;;;;;;8.00;100.00;100259.69;5052684;28;20036;-49
2022/12/29 11:20:28;;;;;;;37.25;7.90;;;;;;;7.96;100.00;100260.44;5053429;28;20025;-49
2022/12/29 11:22:53;;;;;;;25.95;6.30;;;;;;;7.96;100.00;100255.31;5053536;28;20025;-47
2022/12/29 11:25:18;;;;;;;32.95;7.50;;;;;;;7.98;100.00;100268.19;5052723;28;20099;-46
2022/12/29 11:27:55;;;;;;;31.45;6.28;;;;;;;8.00;100.00;100271.66;5052898;28;20033;-48
2022/12/29 11:30:26;;;;;;;39.92;9.27;;;;;;;8.06;100.00;100277.84;5053189;28;20029;-48
2022/12/29 11:32:54;;;;;;;37.17;9.50;;;;;;;8.19;100.00;100278.25;5052473;28;20105;-48
2022/12/29 11:35:32;;;;;;;30.13;5.90;;;;;;;8.30;100.00;100282.00;5053199;28;20043;-49
2022/12/29 11:37:59;;;;;;;31.35;6.53;;;;;;;8.45;100.00;100273.88;5052875;28;20079;-47
2022/12/29 11:40:25;;;;;;;29.35;6.50;;;;;;;8.59;100.00;100278.56;5052386;28;20520;-48
2022/12/29 11:42:54;;;;;;;38.00;8.05;;;;;;;8.66;100.00;100277.91;5052870;28;20044;-48
2022/12/29 11:45:22;;;;;;;27.88;5.65;;;;;;;8.75;100.00;100290.13;5052466;28;20431;-47
2022/12/29 11:48:21;;;;;;;42.13;6.60;;;;;;;8.77;100.00;100291.06;5052539;28;20455;-46
2022/12/29 11:50:59;;;;;;;34.90;5.90;;;;;;;8.77;100.00;100281.66;5040397;28;20552;-46
2022/12/29 11:53:27;;;;;;;30.67;4.70;;;;;;;8.73;99.91;100287.53;5052561;28;20082;-45
2022/12/29 11:55:56;;;;;;;28.30;4.85;;;;;;;8.75;100.00;100295.28;5052794;28;20418;-47
2022/12/29 11:58:29;;;;;;;28.92;5.30;;;;;;;8.74;99.48;100299.56;5052648;28;20029;-46
2022/12/29 12:00:56;;;;;;;34.40;6.50;;;;;;;8.69;100.00;100296.00;5052120;28;20045;-47
2022/12/29 12:03:26;;;;;;;31.13;4.93;;;;;;;8.62;100.00;100304.34;5052645;28;20029;-46
2022/12/29 12:06:02;;;;;;;27.42;5.88;;;;;;;8.57;100.00;100301.63;5052368;28;20623;-47
2022/12/29 12:08:41;;;;;;;30.10;5.40;;;;;;;8.59;100.00;100297.41;5052000;28;20025;-46